Airfield :
LOGIN :

Register | Disclaimer

   EN    FR    IT 

 










Legend :    VFR   Marginal VFR   IFR   Intensive IFR   Very Intensive IFR
Visi :
Ceiling :
>= 8 km
>= 3000ft
5 to 8 km
1000 to 3000 ft
1500m to 5 km
500 to 1000 ft
800 to 1500m
200 to 500 ft
< 800m
< 200 ft
Symbols :   Thunderstorms  Fog  Heavy snow  Heavy precipitations  Wind > 20 kt
SIGMETs :     Misc.  Thunderstorms  Icing  Turbulence  Mountain Waves  Volcanic Ashes






- Airport Elevation : 2001 ft
- IATA code : MAD


LEMD - Madrid

CURRENT METAR :
  • 011500Z 00000KT 9999 FEW020 BKN050 13/07 Q1010 NOSIG

EXPIRED METARs :
  • 011430Z VRB02KT 9999 FEW020 SCT040 BKN060 12/08 Q1011 NOSIG
  • 011400Z VRB03KT 9999 FEW015 SCT030 BKN060 13/09 Q1011 NOSIG
  • 011330Z 01005KT 330V070 9999 FEW015 SCT050 11/07 Q1011 NOSIG
  • 011300Z 01005KT 340V060 9999 SCT030 SCT050 BKN070 10/08 Q1011 R88/29//95 NOSIG
  • 011230Z 36004KT 330V030 9999 FEW020 SCT030TCU BKN040 09/08 Q1011 R88/29//95 NOSIG

TAF TAF LEMD
Valid from the 01 at 12:00 until the 02 at 18:00 UTC


011100Z 0112/0218 VRB05KT 9999 BKN014 BKN030 TX13/0116Z TN03/0206Z
TEMPO 0115/0118 21010KT
PROB40
TEMPO 0112/0119 4000 RADZ SHRA BKN010 SCT020TCU
PROB40
TEMPO 0123/0209 3000 BR BCFG BKN005
PROB30
TEMPO 0205/0208 0900 FG VV002
PROB40
TEMPO 0212/0218 4000 DZRA BKN012



MET'MAP, your aeronautical weather chart ! - Copyright ORBIFLY December 2007 - Disclaimer

ORBIFLY MET'MAP TEAM :

Programming & Development : Alexandra Zaïnal
Concept & original design : Baudouin d'Aumeries
Assistance for programming : Marc-Olivier Méhu
Technical & hardware support : Manuel Goepfert

Contact : metmap@orbifly.com




SOURCES & CREDITS :

   NOAA